Time;durP1;ratioP1;P1;durP2;ratioP2;P2;SDS_P1;SDS_P2;PMS_P1;PMS_P2;Temp;Humidity;BMP_temperature;BMP_pressure;BME280_temperature;BME280_humidity;BME280_pressure;Samples;Min_cycle;Max_cycle;Signal;HPM_P1;HPM_P2
2023/02/10 00:00:09;;;;;;;31.93;24.00;;;1.00;99.90;;;;;;5097045;28;20176;-37
2023/02/10 00:02:34;;;;;;;34.30;25.70;;;1.00;99.90;;;;;;5097225;28;20190;-37
2023/02/10 00:05:00;;;;;;;40.27;25.50;;;1.00;99.90;;;;;;5097577;28;20458;-37
2023/02/10 00:07:25;;;;;;;33.80;25.83;;;1.00;99.90;;;;;;5097005;28;20275;-36
2023/02/10 00:09:51;;;;;;;39.53;26.20;;;1.00;99.90;;;;;;5099209;28;20503;-37
2023/02/10 00:12:17;;;;;;;36.30;24.03;;;0.90;99.90;;;;;;5098611;28;20172;-37
2023/02/10 00:14:42;;;;;;;35.30;24.63;;;0.90;99.90;;;;;;5099168;28;20181;-38
2023/02/10 00:17:08;;;;;;;34.17;23.80;;;0.90;1.00;;;;;;5098964;28;20359;-37
2023/02/10 00:19:34;;;;;;;29.47;21.20;;;0.90;1.00;;;;;;5098360;28;20505;-36
2023/02/10 00:22:01;;;;;;;35.20;25.30;;;0.80;1.00;;;;;;5099005;28;20451;-36
2023/02/10 00:24:27;;;;;;;28.87;23.03;;;0.80;1.00;;;;;;5098735;28;20613;-37
2023/02/10 00:26:53;;;;;;;31.20;22.67;;;0.80;1.00;;;;;;5099023;28;20430;-36
2023/02/10 00:29:18;;;;;;;30.07;23.00;;;0.70;1.00;;;;;;5097776;28;20673;-36
2023/02/10 00:31:44;;;;;;;31.53;23.60;;;0.70;1.00;;;;;;5098786;28;20453;-36
2023/02/10 00:34:13;;;;;;;29.80;22.17;;;0.70;1.00;;;;;;5097621;28;20215;-36
2023/02/10 00:36:39;;;;;;;31.63;21.60;;;0.70;1.00;;;;;;5098004;28;20867;-36
2023/02/10 00:39:05;;;;;;;28.93;21.57;;;0.70;1.00;;;;;;5097289;28;20426;-36
2023/02/10 00:41:31;;;;;;;29.20;22.00;;;0.70;1.00;;;;;;5097496;28;20673;-36
2023/02/10 00:43:56;;;;;;;29.00;22.77;;;0.70;1.00;;;;;;5097691;28;20246;-36
2023/02/10 00:46:22;;;;;;;31.13;23.03;;;0.60;1.00;;;;;;5096938;28;20203;-36
2023/02/10 00:48:49;;;;;;;31.63;21.57;;;0.60;1.00;;;;;;5097115;28;20448;-36
2023/02/10 00:51:15;;;;;;;33.30;22.10;;;0.60;1.00;;;;;;5097167;28;20180;-34
2023/02/10 00:53:41;;;;;;;30.90;22.10;;;0.50;1.00;;;;;;5097304;28;20422;-36
2023/02/10 00:56:07;;;;;;;27.77;22.10;;;0.50;1.00;;;;;;5097004;28;20418;-36
2023/02/10 00:58:33;;;;;;;36.30;24.60;;;0.50;1.00;;;;;;5096259;28;20723;-36
2023/02/10 01:00:59;;;;;;;31.83;22.73;;;0.50;1.00;;;;;;5097322;28;20708;-34
2023/02/10 01:03:25;;;;;;;29.17;21.10;;;0.50;1.00;;;;;;5096594;28;20430;-36
2023/02/10 01:05:51;;;;;;;30.67;22.40;;;0.50;1.00;;;;;;5096954;28;20216;-36
2023/02/10 01:08:17;;;;;;;29.97;20.97;;;0.40;1.00;;;;;;5096743;28;20565;-36
2023/02/10 01:10:43;;;;;;;30.93;22.07;;;0.40;1.00;;;;;;5096777;28;20734;-36
2023/02/10 01:13:10;;;;;;;33.50;23.07;;;0.30;1.00;;;;;;5096815;28;20501;-36
2023/02/10 01:15:44;;;;;;;32.00;23.30;;;0.30;1.00;;;;;;5097758;28;20453;-36
2023/02/10 01:18:10;;;;;;;29.50;22.37;;;0.30;1.00;;;;;;5097814;28;20426;-36
2023/02/10 01:20:41;;;;;;;32.67;23.27;;;0.30;1.00;;;;;;5097259;28;20456;-35
2023/02/10 01:23:07;;;;;;;33.43;22.80;;;0.20;1.00;;;;;;5097332;28;20185;-35
2023/02/10 01:25:34;;;;;;;31.67;23.53;;;0.20;1.00;;;;;;5096770;28;20559;-36
2023/02/10 01:28:00;;;;;;;28.63;20.90;;;0.20;1.00;;;;;;5097050;28;20839;-37
2023/02/10 01:30:26;;;;;;;19.37;12.83;;;0.20;1.00;;;;;;5097568;28;20467;-36
2023/02/10 01:32:55;;;;;;;20.03;12.67;;;0.70;1.00;;;;;;5097223;28;20514;-36
2023/02/10 01:35:21;;;;;;;23.07;15.23;;;2.90;1.00;;;;;;5095994;28;20421;-36
2023/02/10 01:37:47;;;;;;;26.93;18.33;;;3.90;1.00;;;;;;5096557;28;20422;-36
2023/02/10 01:40:13;;;;;;;27.50;19.03;;;4.80;1.00;;;;;;5096136;28;20669;-36
2023/02/10 01:42:42;;;;;;;34.03;24.83;;;5.10;1.00;;;;;;5097880;28;20176;-37
2023/02/10 01:45:32;;;;;;;32.03;23.00;;;4.80;1.00;;;;;;5097242;28;20236;-36
2023/02/10 01:47:58;;;;;;;28.43;21.93;;;4.30;1.00;;;;;;5096145;28;20835;-36
2023/02/10 01:50:27;;;;;;;34.30;24.40;;;3.80;99.90;;;;;;5094647;28;20421;-36
2023/02/10 01:52:55;;;;;;;28.10;23.03;;;3.30;1.00;;;;;;5093020;28;20480;-36
2023/02/10 01:55:23;;;;;;;30.87;22.90;;;2.90;1.00;;;;;;5094774;28;20422;-36
2023/02/10 01:57:53;;;;;;;28.97;22.20;;;2.60;1.00;;;;;;5095954;28;20433;-36
2023/02/10 02:00:20;;;;;;;32.70;24.40;;;2.20;1.00;;;;;;5094871;28;20423;-35
2023/02/10 02:02:46;;;;;;;30.17;23.00;;;1.90;1.00;;;;;;5095377;28;20454;-36
2023/02/10 02:05:22;;;;;;;31.67;24.40;;;1.70;99.90;;;;;;5093515;28;20548;-38
2023/02/10 02:07:48;;;;;;;33.50;24.93;;;1.40;99.90;;;;;;5094381;28;20422;-36
2023/02/10 02:10:16;;;;;;;30.60;23.10;;;1.30;99.90;;;;;;5095295;28;20435;-36
2023/02/10 02:13:05;;;;;;;37.37;26.40;;;1.10;99.90;;;;;;5095605;28;20513;-36
2023/02/10 02:15:37;;;;;;;31.03;22.97;;;1.00;99.90;;;;;;5095296;28;20500;-36
2023/02/10 02:18:17;;;;;;;35.07;25.20;;;0.90;99.90;;;;;;5096516;28;20441;-36
2023/02/10 02:21:17;;;;;;;35.20;25.77;;;0.70;99.90;;;;;;5096951;28;20418;-36
2023/02/10 02:24:03;;;;;;;33.23;25.70;;;0.60;99.90;;;;;;5097236;28;20469;-36
2023/02/10 02:26:50;;;;;;;36.37;25.70;;;0.50;99.90;;;;;;5096888;28;20535;-36
2023/02/10 02:29:46;;;;;;;35.00;24.40;;;0.40;99.90;;;;;;5096802;28;20410;-36
2023/02/10 02:32:24;;;;;;;33.30;24.37;;;0.30;99.90;;;;;;5093846;28;20419;-36
2023/02/10 02:35:02;;;;;;;35.97;24.27;;;0.20;99.90;;;;;;5095494;28;20414;-35
2023/02/10 02:37:37;;;;;;;32.17;23.53;;;0.10;99.90;;;;;;5094120;28;20430;-36
2023/02/10 02:40:03;;;;;;;34.07;24.60;;;0.00;99.90;;;;;;5096452;28;20455;-35
2023/02/10 02:42:30;;;;;;;30.60;23.73;;;0.00;99.90;;;;;;5096385;28;20430;-36
2023/02/10 02:44:58;;;;;;;33.67;24.23;;;-0.10;99.90;;;;;;5097396;28;20469;-35
2023/02/10 02:47:51;;;;;;;32.73;24.50;;;-0.10;99.90;;;;;;5097000;28;20427;-36
2023/02/10 02:50:29;;;;;;;35.77;25.13;;;-0.10;99.90;;;;;;5096418;28;20410;-36
2023/02/10 02:53:19;;;;;;;30.10;22.47;;;-0.20;99.90;;;;;;5080301;28;20417;-35
2023/02/10 02:55:50;;;;;;;38.40;25.67;;;-0.20;99.90;;;;;;5101021;28;20418;-36
2023/02/10 02:58:45;;;;;;;35.13;23.50;;;-0.30;99.90;;;;;;5100952;28;20437;-35
2023/02/10 03:01:21;;;;;;;29.60;21.87;;;-0.30;99.90;;;;;;5100692;28;20696;-36
2023/02/10 03:03:47;;;;;;;36.00;23.77;;;-0.40;99.90;;;;;;5100029;28;20429;-35
2023/02/10 03:06:12;;;;;;;32.63;22.37;;;-0.40;99.90;;;;;;5099927;28;20466;-36
2023/02/10 03:08:40;;;;;;;38.90;26.07;;;-0.40;99.90;;;;;;5098960;28;20422;-35
2023/02/10 03:11:06;;;;;;;33.00;22.87;;;-0.40;99.90;;;;;;5099826;28;20191;-34
2023/02/10 03:13:31;;;;;;;32.87;23.47;;;-0.40;99.90;;;;;;5099657;28;20721;-35
2023/02/10 03:15:59;;;;;;;38.60;27.07;;;-0.50;99.90;;;;;;5100352;28;20237;-35
2023/02/10 03:18:25;;;;;;;32.83;23.63;;;-0.50;99.90;;;;;;5099276;28;20450;-35
2023/02/10 03:20:51;;;;;;;39.70;25.27;;;-0.50;99.90;;;;;;5099551;28;20838;-35
2023/02/10 03:23:16;;;;;;;35.33;25.77;;;-0.50;99.90;;;;;;5099750;28;20423;-36
2023/02/10 03:25:45;;;;;;;38.77;24.83;;;-0.50;99.90;;;;;;5099769;28;20495;-36
2023/02/10 03:28:11;;;;;;;36.77;24.50;;;-0.60;99.90;;;;;;5099384;28;20191;-36
2023/02/10 03:30:37;;;;;;;36.63;26.33;;;-0.60;99.90;;;;;;5098244;28;20419;-36
2023/02/10 03:33:03;;;;;;;37.97;24.93;;;-0.60;99.90;;;;;;5098639;28;20507;-35
2023/02/10 03:35:29;;;;;;;36.60;24.30;;;-0.60;99.90;;;;;;5100151;28;20437;-36
2023/02/10 03:37:54;;;;;;;32.90;25.10;;;-0.70;99.90;;;;;;5099610;28;20176;-36
2023/02/10 03:40:20;;;;;;;36.93;24.57;;;-0.70;99.90;;;;;;5099133;28;20196;-37
2023/02/10 03:42:46;;;;;;;30.27;23.40;;;-0.70;99.90;;;;;;5099544;28;20205;-36
2023/02/10 03:45:11;;;;;;;33.30;24.47;;;-0.80;99.90;;;;;;5099203;28;20200;-36
2023/02/10 03:47:37;;;;;;;30.50;23.30;;;-0.80;99.90;;;;;;5099206;28;20292;-36
2023/02/10 03:50:03;;;;;;;32.30;23.90;;;-0.80;99.90;;;;;;5099200;28;20244;-36
2023/02/10 03:52:28;;;;;;;37.83;25.37;;;-0.80;99.90;;;;;;5099199;28;20211;-36
2023/02/10 03:54:54;;;;;;;37.27;24.70;;;-0.80;99.90;;;;;;5099485;28;20229;-36
2023/02/10 03:57:19;;;;;;;37.03;25.77;;;-0.80;99.90;;;;;;5098832;28;20176;-36
2023/02/10 03:59:45;;;;;;;33.73;23.43;;;-0.80;99.90;;;;;;5098920;28;20173;-36
2023/02/10 04:02:11;;;;;;;32.60;24.20;;;-0.90;99.90;;;;;;5099092;28;20172;-36
2023/02/10 04:04:37;;;;;;;32.33;23.77;;;-0.90;99.90;;;;;;5097074;28;20514;-36
2023/02/10 04:07:03;;;;;;;31.03;21.23;;;-0.90;99.90;;;;;;5096917;28;20251;-36
2023/02/10 04:09:29;;;;;;;34.93;24.77;;;-0.90;99.90;;;;;;5097867;28;20191;-35
2023/02/10 04:11:55;;;;;;;35.43;26.03;;;-0.90;99.90;;;;;;5097284;28;20457;-35
2023/02/10 04:14:21;;;;;;;32.33;24.17;;;-1.00;99.90;;;;;;5097219;28;20446;-35
2023/02/10 04:16:46;;;;;;;31.03;22.97;;;-1.00;99.90;;;;;;5095951;28;20175;-36
2023/02/10 04:19:12;;;;;;;34.07;23.70;;;-1.00;99.90;;;;;;5096889;28;20175;-35
2023/02/10 04:21:38;;;;;;;38.43;23.90;;;-1.00;99.90;;;;;;5098037;28;20169;-36
2023/02/10 04:24:03;;;;;;;32.40;23.87;;;-1.00;99.90;;;;;;5098291;28;20254;-34
2023/02/10 04:26:29;;;;;;;32.40;24.30;;;-1.00;99.90;;;;;;5097937;28;20511;-36
2023/02/10 04:28:55;;;;;;;34.60;24.33;;;-1.10;99.90;;;;;;5096142;28;20172;-36
2023/02/10 04:31:21;;;;;;;33.40;23.43;;;-1.10;99.90;;;;;;5095438;28;20596;-37
2023/02/10 04:33:46;;;;;;;35.07;24.67;;;-1.10;99.90;;;;;;5096032;28;20464;-36
2023/02/10 04:36:12;;;;;;;32.30;23.20;;;-1.20;99.90;;;;;;5096852;28;20203;-36
2023/02/10 04:38:37;;;;;;;34.20;24.80;;;-1.20;99.90;;;;;;5096715;28;20445;-36
2023/02/10 04:41:04;;;;;;;34.97;23.90;;;-1.20;99.90;;;;;;5097429;28;20267;-36
2023/02/10 04:43:31;;;;;;;33.23;22.57;;;-1.20;99.90;;;;;;5097834;28;20496;-36
2023/02/10 04:45:57;;;;;;;35.93;26.03;;;-1.20;99.90;;;;;;5098313;28;20466;-36
2023/02/10 04:48:22;;;;;;;33.40;23.37;;;-1.20;99.90;;;;;;5097109;28;20603;-37
2023/02/10 04:50:48;;;;;;;37.00;23.67;;;-1.30;99.90;;;;;;5097194;28;20180;-35
2023/02/10 04:53:14;;;;;;;37.63;24.27;;;-1.30;99.90;;;;;;5096494;28;20180;-36
2023/02/10 04:55:39;;;;;;;31.87;23.60;;;-1.30;99.90;;;;;;5098100;28;20422;-36
2023/02/10 04:58:06;;;;;;;31.63;24.17;;;-1.30;99.90;;;;;;5097619;28;20187;-36
2023/02/10 05:00:33;;;;;;;36.90;26.00;;;-1.30;99.90;;;;;;5096388;28;20258;-35
2023/02/10 05:02:59;;;;;;;35.27;24.93;;;-1.30;99.90;;;;;;5095336;28;20514;-36
2023/02/10 05:05:25;;;;;;;36.97;25.87;;;-1.40;99.90;;;;;;5095997;28;20549;-36
2023/02/10 05:07:52;;;;;;;35.07;24.10;;;-1.40;99.90;;;;;;5097216;28;20430;-36
2023/02/10 05:10:17;;;;;;;36.13;25.27;;;-1.40;99.90;;;;;;5096092;28;20426;-36
2023/02/10 05:12:43;;;;;;;38.63;25.60;;;-1.40;99.90;;;;;;5096242;28;20496;-37
2023/02/10 05:15:09;;;;;;;34.47;23.80;;;-1.40;99.90;;;;;;5096347;28;20255;-36
2023/02/10 05:17:35;;;;;;;30.20;21.80;;;-1.50;99.90;;;;;;5095878;28;20176;-38
2023/02/10 05:20:01;;;;;;;37.57;24.73;;;-1.50;99.90;;;;;;5095990;28;20426;-36
2023/02/10 05:22:29;;;;;;;35.83;24.47;;;-1.50;99.90;;;;;;5095959;28;20233;-36
2023/02/10 05:24:56;;;;;;;38.10;26.03;;;-1.50;99.90;;;;;;5096303;28;20531;-34
2023/02/10 05:27:23;;;;;;;36.37;25.50;;;-1.50;99.90;;;;;;5096967;28;20434;-35
2023/02/10 05:29:49;;;;;;;40.70;24.87;;;-1.50;99.90;;;;;;5098129;28;20426;-36
2023/02/10 05:32:14;;;;;;;35.83;23.47;;;-1.50;99.90;;;;;;5096276;28;20422;-36
2023/02/10 05:34:40;;;;;;;36.80;23.90;;;-1.50;99.90;;;;;;5094985;28;20418;-36
2023/02/10 05:37:06;;;;;;;33.77;23.40;;;-1.50;99.90;;;;;;5094716;28;20172;-36
2023/02/10 05:39:32;;;;;;;31.57;22.33;;;-1.50;99.90;;;;;;5094245;28;20437;-36
2023/02/10 05:41:58;;;;;;;32.50;21.47;;;-1.60;99.90;;;;;;5092874;28;20779;-36
2023/02/10 05:44:26;;;;;;;35.30;23.50;;;-1.50;99.90;;;;;;5092698;28;20298;-36
2023/02/10 05:46:51;;;;;;;33.37;24.50;;;-1.60;99.90;;;;;;5093626;28;20509;-36
2023/02/10 05:49:18;;;;;;;36.00;22.97;;;-1.60;99.90;;;;;;5102059;28;20850;-37
2023/02/10 05:51:45;;;;;;;33.93;24.10;;;-1.60;99.90;;;;;;5111852;28;20226;-37
2023/02/10 05:54:11;;;;;;;32.27;22.07;;;-1.60;99.90;;;;;;5113377;28;20405;-36
2023/02/10 05:56:37;;;;;;;29.80;22.07;;;-1.70;99.90;;;;;;5111829;28;20424;-36
2023/02/10 05:59:02;;;;;;;31.77;22.07;;;-1.70;99.90;;;;;;5112288;28;20707;-37
2023/02/10 06:01:28;;;;;;;34.70;23.40;;;-1.70;99.90;;;;;;5113946;28;20406;-36
2023/02/10 06:03:55;;;;;;;32.87;21.67;;;-1.70;99.90;;;;;;5113056;28;20192;-35
2023/02/10 06:06:20;;;;;;;35.23;22.97;;;-1.80;99.90;;;;;;5113947;28;20932;-36
2023/02/10 06:08:46;;;;;;;28.93;21.53;;;-1.80;99.90;;;;;;5112689;28;20255;-36
2023/02/10 06:11:12;;;;;;;34.03;22.80;;;-1.80;99.90;;;;;;5112669;28;20195;-36
2023/02/10 06:13:38;;;;;;;28.00;21.67;;;-1.80;99.90;;;;;;5112507;28;20613;-35
2023/02/10 06:16:04;;;;;;;32.13;22.50;;;-1.80;99.90;;;;;;5108829;28;20180;-36
2023/02/10 06:18:30;;;;;;;29.97;21.93;;;-1.80;99.90;;;;;;5110846;28;20429;-36
2023/02/10 06:20:56;;;;;;;33.47;22.80;;;-1.80;99.90;;;;;;5110578;28;20995;-36
2023/02/10 06:23:23;;;;;;;28.03;22.03;;;-1.90;99.90;;;;;;5108596;28;20418;-36
2023/02/10 06:25:48;;;;;;;31.83;24.20;;;-1.90;99.90;;;;;;5110406;28;20311;-36
2023/02/10 06:28:14;;;;;;;34.03;24.47;;;-1.90;99.90;;;;;;5110326;28;20468;-37
2023/02/10 06:30:43;;;;;;;29.10;22.20;;;-1.90;99.90;;;;;;5110909;28;20305;-36
2023/02/10 06:33:08;;;;;;;34.33;23.37;;;-1.90;99.90;;;;;;5113634;28;20425;-35
2023/02/10 06:35:34;;;;;;;34.30;24.23;;;-1.90;99.90;;;;;;5113947;28;20429;-36
2023/02/10 06:38:00;;;;;;;32.87;24.20;;;-1.90;99.90;;;;;;5116738;28;20206;-36
2023/02/10 06:40:25;;;;;;;30.30;22.33;;;-1.90;99.90;;;;;;5115666;28;20191;-35
2023/02/10 06:42:51;;;;;;;34.47;25.00;;;-1.90;99.90;;;;;;5113448;28;20244;-35
2023/02/10 06:45:16;;;;;;;31.13;23.20;;;-1.90;99.90;;;;;;5111141;28;20215;-45
2023/02/10 06:47:42;;;;;;;28.77;23.27;;;-1.90;99.90;;;;;;5113442;28;20168;-36
2023/02/10 06:50:08;;;;;;;34.00;22.77;;;-1.90;99.90;;;;;;5113866;28;20383;-36
2023/02/10 06:52:37;;;;;;;34.93;22.47;;;-1.90;99.90;;;;;;5111875;28;20565;-36
2023/02/10 06:55:04;;;;;;;33.57;21.93;;;-1.80;99.90;;;;;;5115925;28;20437;-36
2023/02/10 06:57:30;;;;;;;31.70;23.00;;;-1.80;99.90;;;;;;5116772;28;20463;-36
2023/02/10 06:59:56;;;;;;;33.77;24.20;;;-1.80;99.90;;;;;;5116561;28;20414;-35
2023/02/10 07:02:22;;;;;;;34.50;23.57;;;-1.70;99.90;;;;;;5113814;28;20233;-36
2023/02/10 07:04:47;;;;;;;36.97;25.23;;;-1.70;99.90;;;;;;5112318;28;20180;-36
2023/02/10 07:07:13;;;;;;;31.30;24.40;;;-1.70;99.90;;;;;;5113764;28;20623;-36
2023/02/10 07:09:38;;;;;;;40.10;27.57;;;-1.60;99.90;;;;;;5116734;28;20183;-36
2023/02/10 07:12:04;;;;;;;38.90;27.40;;;-1.50;99.90;;;;;;5118207;28;20211;-35
2023/02/10 07:14:30;;;;;;;32.97;24.80;;;-1.40;99.90;;;;;;5116454;28;20202;-35
2023/02/10 07:16:55;;;;;;;37.47;25.37;;;-1.40;99.90;;;;;;5118008;28;20258;-36
2023/02/10 07:19:21;;;;;;;39.90;25.80;;;-1.20;99.90;;;;;;5118212;28;20172;-36
2023/02/10 07:21:47;;;;;;;34.40;24.57;;;-1.00;99.90;;;;;;5114404;28;20179;-36
2023/02/10 07:24:14;;;;;;;37.70;25.57;;;-0.80;99.90;;;;;;5115834;28;20235;-35
2023/02/10 07:26:40;;;;;;;34.80;25.60;;;-0.50;99.90;;;;;;5116810;28;20195;-36
2023/02/10 07:29:05;;;;;;;33.50;26.43;;;-0.30;80.70;;;;;;5115235;28;20417;-36
2023/02/10 07:31:34;;;;;;;34.30;24.50;;;0.00;48.70;;;;;;5116338;28;20504;-36
2023/02/10 07:34:01;;;;;;;34.37;24.40;;;0.30;20.50;;;;;;5114461;27;20170;-36
2023/02/10 07:36:27;;;;;;;30.60;22.70;;;0.60;1.00;;;;;;5117003;28;20413;-36
2023/02/10 07:38:53;;;;;;;30.80;23.30;;;0.80;1.00;;;;;;5115463;28;20769;-36
2023/02/10 07:41:18;;;;;;;31.47;22.87;;;1.10;1.00;;;;;;5115395;28;20614;-35
2023/02/10 07:43:44;;;;;;;31.20;23.17;;;1.40;1.00;;;;;;5116914;28;20175;-37
2023/02/10 07:46:10;;;;;;;31.13;22.77;;;1.70;1.00;;;;;;5115824;28;20419;-36
2023/02/10 07:48:36;;;;;;;29.60;21.97;;;2.00;1.00;;;;;;5117034;28;20160;-36
2023/02/10 07:51:02;;;;;;;34.00;24.77;;;2.50;1.00;;;;;;5115276;28;20202;-37
2023/02/10 07:53:27;;;;;;;29.43;23.23;;;2.90;1.00;;;;;;5113066;28;20757;-36
2023/02/10 07:55:53;;;;;;;31.43;23.57;;;3.40;1.00;;;;;;5114387;28;20256;-36
2023/02/10 07:58:18;;;;;;;29.20;22.60;;;3.90;1.00;;;;;;5115064;28;20225;-36
2023/02/10 08:00:44;;;;;;;30.70;23.33;;;4.30;1.00;;;;;;5112799;28;20180;-36
2023/02/10 08:03:14;;;;;;;33.20;25.27;;;4.80;1.00;;;;;;5112990;28;20423;-36
2023/02/10 08:05:41;;;;;;;29.77;23.00;;;5.30;1.00;;;;;;5114144;28;20200;-35
2023/02/10 08:08:08;;;;;;;28.43;22.60;;;5.60;1.00;;;;;;5116351;28;20448;-36
2023/02/10 08:10:33;;;;;;;33.40;24.93;;;6.00;1.00;;;;;;5116092;28;20402;-37
2023/02/10 08:12:59;;;;;;;36.03;27.10;;;6.40;1.00;;;;;;5116636;28;20703;-36
2023/02/10 08:15:25;;;;;;;34.33;25.07;;;6.80;1.00;;;;;;5117303;28;20176;-36
2023/02/10 08:17:51;;;;;;;37.40;25.57;;;7.20;1.00;;;;;;5118593;28;20190;-37
2023/02/10 08:20:17;;;;;;;36.53;26.80;;;7.60;1.00;;;;;;5097072;28;20550;-37
2023/02/10 08:22:42;;;;;;;32.20;26.23;;;8.10;1.00;;;;;;5096430;28;20426;-37
2023/02/10 08:25:08;;;;;;;34.57;25.50;;;8.50;1.00;;;;;;5096682;28;20637;-37
2023/02/10 08:27:34;;;;;;;30.50;25.67;;;9.00;1.00;;;;;;5096270;28;20192;-38
2023/02/10 08:30:00;;;;;;;30.60;24.27;;;9.50;1.00;;;;;;5095374;28;20498;-38
2023/02/10 08:32:25;;;;;;;28.17;23.10;;;10.20;1.00;;;;;;5096677;28;20251;-35
2023/02/10 08:34:52;;;;;;;25.87;21.47;;;11.00;1.00;;;;;;5094111;28;20199;-36
2023/02/10 08:37:18;;;;;;;28.43;24.37;;;11.70;1.00;;;;;;5094716;28;20169;-36
2023/02/10 08:39:44;;;;;;;25.83;21.27;;;12.50;1.00;;;;;;5096220;28;20414;-37
2023/02/10 08:42:10;;;;;;;29.00;24.50;;;13.30;1.00;;;;;;5096187;28;20913;-37
2023/02/10 08:44:36;;;;;;;25.53;21.30;;;14.00;1.00;;;;;;5091832;28;20430;-36
2023/02/10 08:47:02;;;;;;;25.97;22.00;;;14.90;1.00;;;;;;5093662;28;20176;-37
2023/02/10 08:49:28;;;;;;;22.83;20.37;;;15.50;1.00;;;;;;5091959;28;20406;-36
2023/02/10 08:51:54;;;;;;;26.37;21.57;;;16.30;1.00;;;;;;5092774;28;20951;-37
2023/02/10 08:54:20;;;;;;;27.40;22.63;;;16.90;1.00;;;;;;5092938;28;20410;-37
2023/02/10 08:56:47;;;;;;;27.23;22.53;;;17.20;1.00;;;;;;5092516;28;20430;-37
2023/02/10 08:59:12;;;;;;;26.20;23.30;;;17.60;1.00;;;;;;5093365;28;20423;-38
2023/02/10 09:01:38;;;;;;;8.23;6.80;;;18.10;1.00;;;;;;5093271;28;20410;-39
2023/02/10 09:04:04;;;;;;;10.70;9.03;;;19.60;1.00;;;;;;5092777;28;20184;-38
2023/02/10 09:06:40;;;;;;;18.40;10.83;;;20.70;1.00;;;;;;5094423;28;20228;-37
2023/02/10 09:09:36;;;;;;;14.73;12.20;;;21.50;1.00;;;;;;5093897;28;20414;-39
2023/02/10 09:12:03;;;;;;;12.83;11.43;;;22.50;1.00;;;;;;5091303;28;20426;-38
2023/02/10 09:14:30;;;;;;;12.27;10.97;;;23.40;1.00;;;;;;5091800;28;20414;-37
2023/02/10 09:16:56;;;;;;;14.57;13.10;;;24.10;1.00;;;;;;5090931;28;20439;-39
2023/02/10 09:19:23;;;;;;;15.40;13.50;;;24.80;1.00;;;;;;5093330;28;20468;-38
2023/02/10 09:21:49;;;;;;;15.47;13.87;;;25.40;1.00;;;;;;5093123;28;20442;-39
2023/02/10 09:24:15;;;;;;;13.50;12.17;;;26.00;1.00;;;;;;5093766;28;20461;-38
2023/02/10 09:26:42;;;;;;;16.27;14.77;;;26.60;1.00;;;;;;5092224;28;20863;-39
2023/02/10 09:29:08;;;;;;;16.47;14.90;;;27.00;1.00;;;;;;5094330;28;20482;-40
2023/02/10 09:31:35;;;;;;;17.70;16.00;;;27.40;1.00;;;;;;5094837;28;20477;-41
2023/02/10 09:34:01;;;;;;;16.57;14.97;;;27.70;1.00;;;;;;5094608;28;20176;-38
2023/02/10 09:36:27;;;;;;;18.23;16.47;;;28.20;1.00;;;;;;5092227;28;20808;-39
2023/02/10 09:38:55;;;;;;;18.27;16.67;;;28.50;1.00;;;;;;5095042;28;20425;-39
2023/02/10 09:41:25;;;;;;;20.37;18.50;;;28.80;1.00;;;;;;5095363;28;20184;-39
2023/02/10 09:43:57;;;;;;;16.93;15.43;;;28.70;1.00;;;;;;5096190;28;20901;-39
2023/02/10 09:46:50;;;;;;;20.30;18.47;;;29.30;1.00;;;;;;5095669;28;20467;-40
2023/02/10 09:49:35;;;;;;;21.87;19.80;;;29.50;1.00;;;;;;5094648;28;20705;-40
2023/02/10 09:52:31;;;;;;;21.80;19.83;;;29.50;1.00;;;;;;5091943;28;20389;-40
2023/02/10 09:54:57;;;;;;;20.07;18.27;;;29.70;1.00;;;;;;5091675;28;20494;-39
2023/02/10 09:57:38;;;;;;;21.97;20.07;;;29.90;1.00;;;;;;5089858;28;20418;-40
2023/02/10 10:00:06;;;;;;;22.30;20.40;;;29.90;1.00;;;;;;5093381;28;20555;-39
2023/02/10 10:02:34;;;;;;;21.37;19.47;;;30.10;1.00;;;;;;5074464;28;20537;-41
2023/02/10 10:05:11;;;;;;;21.60;19.50;;;30.30;1.00;;;;;;5092166;28;20871;-41
2023/02/10 10:07:38;;;;;;;21.27;19.43;;;30.40;1.00;;;;;;5092452;28;20414;-41
2023/02/10 10:10:32;;;;;;;22.30;20.40;;;30.60;1.00;;;;;;5093925;28;20406;-41
2023/02/10 10:12:58;;;;;;;19.67;17.90;;;30.90;1.00;;;;;;5094801;28;20393;-40
2023/02/10 10:15:27;;;;;;;21.83;19.93;;;31.20;1.00;;;;;;5094812;28;20490;-42
2023/02/10 10:17:59;;;;;;;23.40;21.30;;;31.20;1.00;;;;;;5092177;28;20725;-39
2023/02/10 10:20:35;;;;;;;20.77;18.97;;;31.10;1.00;;;;;;5094201;28;20907;-40
2023/02/10 10:23:04;;;;;;;19.57;17.80;;;30.90;1.00;;;;;;5093128;28;20401;-39
2023/02/10 10:25:48;;;;;;;18.13;16.63;;;31.30;1.00;;;;;;5093300;28;20453;-39
2023/02/10 10:28:32;;;;;;;19.30;17.70;;;31.40;1.00;;;;;;5094825;28;20396;-41
2023/02/10 10:31:03;;;;;;;18.70;17.10;;;31.20;1.00;;;;;;5094045;28;20429;-42
2023/02/10 10:33:32;;;;;;;18.30;16.70;;;31.20;1.00;;;;;;5090898;28;20426;-39
2023/02/10 10:36:01;;;;;;;18.40;16.87;;;30.90;1.00;;;;;;5091649;28;20544;-41
2023/02/10 10:38:32;;;;;;;21.20;19.37;;;30.70;1.00;;;;;;5091847;28;20426;-40
2023/02/10 10:41:07;;;;;;;20.13;18.43;;;30.40;1.00;;;;;;5092262;28;20751;-41
2023/02/10 10:43:45;;;;;;;18.50;16.90;;;30.40;1.00;;;;;;5096202;28;20523;-41
2023/02/10 10:46:36;;;;;;;17.67;16.20;;;30.30;1.00;;;;;;5091559;28;20863;-40
2023/02/10 10:49:02;;;;;;;19.43;17.80;;;30.30;1.00;;;;;;5083279;28;20404;-40
2023/02/10 10:51:28;;;;;;;19.80;18.10;;;30.50;1.00;;;;;;5093540;28;20468;-40
2023/02/10 10:53:56;;;;;;;19.50;18.00;;;30.80;1.00;;;;;;5092674;28;20187;-43
2023/02/10 10:56:32;;;;;;;19.40;17.70;;;30.80;1.00;;;;;;5091277;28;20459;-41
2023/02/10 10:58:59;;;;;;;20.30;18.70;;;31.30;1.00;;;;;;5093030;28;20385;-41
2023/02/10 11:01:37;;;;;;;19.50;17.80;;;31.60;1.00;;;;;;5091890;28;20389;-40
2023/02/10 11:04:17;;;;;;;18.83;17.33;;;32.20;1.00;;;;;;5092738;28;20392;-41
2023/02/10 11:06:47;;;;;;;21.90;20.00;;;32.40;1.00;;;;;;5091843;28;20491;-40
2023/02/10 11:09:22;;;;;;;20.30;18.60;;;33.10;1.00;;;;;;5091024;28;20399;-40
2023/02/10 11:11:48;;;;;;;19.53;17.80;;;33.20;1.00;;;;;;5091434;28;20388;-40
2023/02/10 11:14:21;;;;;;;17.50;16.00;;;34.00;1.00;;;;;;5091716;28;20787;-41
2023/02/10 11:16:50;;;;;;;19.90;18.40;;;34.50;1.00;;;;;;5095109;28;20708;-42
2023/02/10 11:19:18;;;;;;;18.77;17.37;;;34.80;1.00;;;;;;5093549;28;20422;-40
2023/02/10 11:21:44;;;;;;;17.40;16.00;;;35.70;1.00;;;;;;5094962;28;20836;-38
2023/02/10 11:24:22;;;;;;;18.40;16.90;;;36.00;1.00;;;;;;5094829;28;20556;-41
2023/02/10 11:27:00;;;;;;;17.40;15.90;;;36.10;1.00;;;;;;5096148;28;20458;-41
2023/02/10 11:29:27;;;;;;;18.60;17.10;;;36.70;1.00;;;;;;5096186;28;20609;-40
2023/02/10 11:31:54;;;;;;;16.10;14.80;;;37.30;1.00;;;;;;5096413;28;20461;-42
2023/02/10 11:34:38;;;;;;;18.70;17.07;;;37.70;1.00;;;;;;5095728;28;20388;-40
2023/02/10 11:37:24;;;;;;;16.80;15.50;;;37.90;1.00;;;;;;5095793;28;20661;-42
2023/02/10 11:39:53;;;;;;;18.37;16.93;;;37.50;1.00;;;;;;5091853;28;20418;-41
2023/02/10 11:42:33;;;;;;;17.10;15.43;;;37.40;1.00;;;;;;5091782;28;20493;-41
2023/02/10 11:45:20;;;;;;;17.53;16.23;;;37.90;1.00;;;;;;5093809;28;20512;-42
2023/02/10 11:47:46;;;;;;;18.43;17.07;;;37.80;1.00;;;;;;5094991;28;20422;-46
2023/02/10 11:50:23;;;;;;;17.97;16.70;;;38.10;1.00;;;;;;5094068;28;20407;-44
2023/02/10 11:52:49;;;;;;;18.03;16.73;;;37.60;1.00;;;;;;5093077;28;20417;-41
2023/02/10 11:55:15;;;;;;;17.80;16.40;;;37.60;1.00;;;;;;5078416;28;20876;-42
2023/02/10 12:00:42;;;;;;;17.20;15.90;;;38.00;1.00;;;;;;5094292;28;20547;-42
2023/02/10 12:03:22;;;;;;;14.80;13.60;;;37.70;1.00;;;;;;5092909;28;21045;-44
2023/02/10 12:06:08;;;;;;;15.10;13.97;;;37.50;1.00;;;;;;5092402;28;20809;-43
2023/02/10 12:08:34;;;;;;;15.20;13.80;;;37.60;1.00;;;;;;5092248;28;20410;-43
2023/02/10 12:11:06;;;;;;;16.23;14.93;;;38.10;1.00;;;;;;5088978;28;20410;-42
2023/02/10 12:13:57;;;;;;;14.70;13.50;;;38.40;1.00;;;;;;5089422;28;20233;-41
2023/02/10 12:17:05;;;;;;;16.83;15.53;;;38.80;1.00;;;;;;5089508;28;20702;-42
2023/02/10 12:19:53;;;;;;;17.50;16.10;;;38.60;1.00;;;;;;5092625;28;20411;-40
2023/02/10 12:22:23;;;;;;;13.03;12.03;;;38.50;1.00;;;;;;5086592;28;20503;-44
2023/02/10 12:25:22;;;;;;;14.60;13.50;;;38.90;1.00;;;;;;5087902;28;20454;-42
2023/02/10 12:27:57;;;;;;;18.07;16.70;;;39.00;1.00;;;;;;5090855;28;20755;-43
2023/02/10 12:30:49;;;;;;;19.30;17.70;;;39.00;1.00;;;;;;5089455;28;20481;-42
2023/02/10 12:33:44;;;;;;;18.00;16.53;;;39.00;1.00;;;;;;5058266;28;20712;-41
2023/02/10 12:36:30;;;;;;;19.23;17.73;;;38.80;1.00;;;;;;5080780;28;20536;-42
2023/02/10 12:39:20;;;;;;;16.03;14.83;;;39.00;1.00;;;;;;5092175;28;20866;-43
2023/02/10 12:41:52;;;;;;;16.53;15.07;;;39.10;1.00;;;;;;5091280;28;20468;-42
2023/02/10 12:44:55;;;;;;;14.10;13.07;;;39.30;1.00;;;;;;5093307;28;20422;-43
2023/02/10 12:47:38;;;;;;;16.37;15.07;;;39.10;1.00;;;;;;5093999;28;20507;-41
2023/02/10 12:50:24;;;;;;;16.50;15.10;;;39.40;1.00;;;;;;5092111;28;20422;-43